Time;durP1;ratioP1;P1;durP2;ratioP2;P2;SDS_P1;SDS_P2;PMS_P1;PMS_P2;Temp;Humidity;BMP_temperature;BMP_pressure;BME280_temperature;BME280_humidity;BME280_pressure;Samples;Min_cycle;Max_cycle;Signal;HPM_P1;HPM_P2
2021/10/01 00:04:05;;;;;;;9.27;8.30;;;;;;;4.59;100.00;101718.16;20893022;27;20584;-69
2021/10/01 00:24:08;;;;;;;14.52;11.70;;;;;;;4.66;100.00;101701.28;21102992;27;1667403;-69
2021/10/01 00:34:10;;;;;;;10.70;9.60;;;;;;;4.71;100.00;101709.13;21142943;28;20564;-69
2021/10/01 00:44:13;;;;;;;11.97;10.37;;;;;;;4.59;100.00;101704.94;21142242;28;20303;-69
2021/10/01 00:54:16;;;;;;;11.50;10.37;;;;;;;4.50;100.00;101710.38;21141416;28;20724;-69
2021/10/01 01:04:19;;;;;;;10.83;9.57;;;;;;;4.38;100.00;101701.78;21139450;28;20220;-68
2021/10/01 01:14:25;;;;;;;12.37;9.77;;;;;;;4.34;100.00;101703.63;21139820;28;20525;-69
2021/10/01 01:24:47;;;;;;;13.73;10.70;;;;;;;4.24;100.00;101702.88;21137499;28;20288;-68
2021/10/01 01:35:03;;;;;;;10.43;9.33;;;;;;;4.11;100.00;101700.44;21083112;28;20225;-69
2021/10/01 01:45:07;;;;;;;9.73;8.83;;;;;;;4.03;100.00;101697.06;21080080;28;20237;-69
2021/10/01 01:55:12;;;;;;;9.50;8.53;;;;;;;3.87;100.00;101685.84;21079095;28;20231;-69
2021/10/01 02:05:15;;;;;;;13.60;10.63;;;;;;;3.86;100.00;101692.94;21078559;28;20285;-69
2021/10/01 03:05:26;;;;;;;10.07;9.00;;;;;;;3.47;100.00;101733.06;21064792;27;20567;-68
2021/10/01 03:15:30;;;;;;;9.93;7.97;;;;;;;3.44;100.00;101727.81;21058708;28;20220;-67
2021/10/01 03:25:36;;;;;;;11.33;9.07;;;;;;;3.41;100.00;101718.16;21056620;28;20219;-68
2021/10/01 03:35:40;;;;;;;9.27;7.40;;;;;;;3.29;100.00;101722.72;21057223;28;20313;-68
2021/10/01 04:05:40;;;;;;;9.07;7.33;;;;;;;2.94;100.00;101718.72;21062878;27;20642;-68
2021/10/01 04:15:42;;;;;;;9.83;8.50;;;;;;;2.89;100.00;101724.06;21058829;28;20303;-68
2021/10/01 04:25:46;;;;;;;9.47;8.10;;;;;;;2.93;100.00;101729.28;21056847;28;20306;-68
2021/10/01 04:35:49;;;;;;;15.73;10.60;;;;;;;2.92;100.00;101738.06;21055378;28;20284;-68
2021/10/01 04:55:53;;;;;;;9.30;8.27;;;;;;;2.99;100.00;101727.47;21056247;27;20637;-68
2021/10/01 05:25:53;;;;;;;12.80;11.27;;;;;;;4.09;100.00;101755.09;21060892;27;20573;-72
2021/10/01 05:45:57;;;;;;;15.10;13.57;;;;;;;5.28;100.00;101768.03;21060782;27;20632;-66
2021/10/01 05:56:03;;;;;;;12.60;11.30;;;;;;;5.86;100.00;101764.19;21058715;28;20703;-66
2021/10/01 06:06:30;;;;;;;12.47;11.27;;;;;;;6.45;100.00;101765.50;21038144;28;20226;-65
2021/10/01 06:16:32;;;;;;;13.47;12.03;;;;;;;7.02;100.00;101758.75;21056807;28;20218;-65
2021/10/01 06:26:36;;;;;;;12.90;11.63;;;;;;;7.52;100.00;101760.88;21054819;28;20231;-66
2021/10/01 06:36:39;;;;;;;11.50;10.50;;;;;;;8.02;100.00;101766.47;21055189;28;20307;-66
2021/10/01 06:46:45;;;;;;;10.37;9.30;;;;;;;8.42;100.00;101770.59;21054380;28;20633;-66
2021/10/01 08:19:31;;;;;;;5.70;5.20;;;;;;;12.18;100.00;101756.38;20991480;28;20228;-67
2021/10/01 08:29:35;;;;;;;5.90;5.40;;;;;;;12.74;100.00;101750.03;20990686;28;20226;-68
2021/10/01 08:39:39;;;;;;;4.97;4.57;;;;;;;13.23;100.00;101748.41;20988832;28;20226;-73
2021/10/01 08:49:51;;;;;;;3.90;3.60;;;;;;;13.56;100.00;101737.69;20988029;28;20218;-68
2021/10/01 08:59:57;;;;;;;5.77;4.77;;;;;;;13.87;100.00;101740.44;20988591;28;20280;-72
2021/10/01 09:10:00;;;;;;;5.37;4.93;;;;;;;14.17;100.00;101747.72;20988314;28;20410;-68
2021/10/01 09:20:04;;;;;;;5.27;4.87;;;;;;;14.51;100.00;101735.94;20987046;28;20288;-73
2021/10/01 09:30:10;;;;;;;4.60;4.20;;;;;;;14.82;100.00;101737.69;20986039;28;20227;-69
2021/10/01 09:40:13;;;;;;;4.03;3.73;;;;;;;15.01;100.00;101739.19;20986747;28;20578;-68
2021/10/01 09:50:22;;;;;;;4.40;4.10;;;;;;;15.07;100.00;101741.53;20986390;28;20229;-74
2021/10/01 10:00:33;;;;;;;3.77;3.50;;;;;;;15.28;100.00;101755.47;20985777;28;20290;-74
2021/10/01 10:10:46;;;;;;;5.20;4.70;;;;;;;15.31;100.00;101749.94;20985467;28;20222;-68
2021/10/01 10:20:48;;;;;;;5.07;4.67;;;;;;;15.39;100.00;101739.53;20985443;28;20700;-69
2021/10/01 10:30:53;;;;;;;4.20;3.90;;;;;;;15.59;100.00;101742.84;20997423;28;20689;-73
2021/10/01 10:40:55;;;;;;;5.37;4.00;;;;;;;15.75;100.00;101722.09;20999326;28;20277;-69
2021/10/01 10:50:59;;;;;;;4.10;3.80;;;;;;;15.91;100.00;101706.69;20998976;28;20244;-69
2021/10/01 11:01:25;;;;;;;4.03;3.73;;;;;;;16.04;100.00;101696.84;20996765;28;20228;-68
2021/10/01 11:11:57;;;;;;;4.23;3.83;;;;;;;16.14;100.00;101676.44;20971662;28;20652;-68
2021/10/01 11:22:00;;;;;;;5.00;4.60;;;;;;;16.56;100.00;101683.47;20963794;28;20222;-70
2021/10/01 11:32:08;;;;;;;4.40;4.00;;;;;;;16.81;100.00;101682.69;20968902;28;20230;-71
2021/10/01 11:42:11;;;;;;;3.00;2.80;;;;;;;17.27;100.00;101664.16;20969993;28;20785;-69
2021/10/01 11:52:17;;;;;;;2.60;2.27;;;;;;;17.43;100.00;101653.16;20971933;28;20235;-68
2021/10/01 12:02:31;;;;;;;1.70;1.60;;;;;;;17.70;100.00;101660.25;20961216;28;20238;-71
2021/10/01 12:12:35;;;;;;;2.73;2.43;;;;;;;17.61;100.00;101646.44;20979740;28;20711;-73
2021/10/01 12:22:38;;;;;;;3.50;3.20;;;;;;;17.31;100.00;101635.13;20956192;28;20223;-75
2021/10/01 12:32:42;;;;;;;4.17;3.77;;;;;;;17.04;100.00;101620.91;20979124;28;20317;-74
2021/10/01 12:42:44;;;;;;;5.60;4.03;;;;;;;16.65;100.00;101606.56;20956247;28;20233;-72
2021/10/01 12:52:56;;;;;;;4.23;3.77;;;;;;;16.54;100.00;101603.72;20974055;28;20229;-72
2021/10/01 13:03:01;;;;;;;4.30;3.87;;;;;;;16.03;100.00;101587.41;20959896;28;20302;-73
2021/10/01 13:13:09;;;;;;;5.00;4.60;;;;;;;15.82;100.00;101580.75;20966620;28;20402;-72
2021/10/01 13:23:14;;;;;;;9.10;4.90;;;;;;;15.73;100.00;101559.81;20965915;28;20227;-72
2021/10/01 13:33:18;;;;;;;6.20;5.60;;;;;;;15.50;100.00;101566.69;20960667;28;20234;-71
2021/10/01 13:43:21;;;;;;;4.47;4.17;;;;;;;15.48;100.00;101547.94;20974131;28;20261;-72
2021/10/01 13:53:24;;;;;;;3.93;3.63;;;;;;;15.44;100.00;101548.25;20951856;28;20254;-72
2021/10/01 14:03:27;;;;;;;4.70;4.30;;;;;;;15.10;100.00;101542.34;20983791;28;20246;-70
2021/10/01 14:13:31;;;;;;;4.00;3.70;;;;;;;14.68;100.00;101539.69;20966327;28;20229;-70
2021/10/01 14:23:34;;;;;;;4.33;3.93;;;;;;;14.65;100.00;101527.28;20988374;28;20291;-70
2021/10/01 14:33:38;;;;;;;3.93;3.57;;;;;;;14.83;100.00;101527.13;20970164;28;20316;-72
2021/10/01 14:43:42;;;;;;;3.80;3.50;;;;;;;14.80;100.00;101517.41;20978549;28;20234;-71
2021/10/01 14:53:47;;;;;;;3.43;3.13;;;;;;;14.57;100.00;101509.91;20973396;28;21001;-76
2021/10/01 15:13:51;;;;;;;3.17;2.97;;;;;;;13.83;100.00;101507.22;21043083;27;20566;-71
2021/10/01 15:23:53;;;;;;;3.30;3.00;;;;;;;13.45;100.00;101501.41;21024259;28;20224;-77
2021/10/01 15:33:57;;;;;;;4.83;4.00;;;;;;;13.04;100.00;101499.19;21046615;28;20711;-76
2021/10/01 15:44:00;;;;;;;6.83;4.90;;;;;;;12.65;100.00;101504.09;21018418;28;21244;-72
2021/10/01 15:54:03;;;;;;;6.50;5.93;;;;;;;12.22;100.00;101498.31;21045351;28;20590;-68
2021/10/01 16:04:06;;;;;;;7.10;6.40;;;;;;;11.77;100.00;101497.06;21046395;27;20683;-68
2021/10/01 16:14:10;;;;;;;8.43;7.63;;;;;;;11.27;100.00;101479.97;21024580;28;20254;-68
2021/10/01 16:34:21;;;;;;;39.23;29.60;;;;;;;10.62;100.00;101486.63;20947856;27;20614;-68
2021/10/01 16:44:24;;;;;;;31.50;23.83;;;;;;;10.40;100.00;101490.25;20934766;28;20226;-69
2021/10/01 16:54:27;;;;;;;36.13;27.33;;;;;;;10.17;100.00;101490.38;20919357;28;21022;-67
2021/10/01 17:04:30;;;;;;;52.90;27.10;;;;;;;9.99;100.00;101489.38;20934340;28;20699;-66
2021/10/01 17:14:35;;;;;;;39.00;26.57;;;;;;;9.88;100.00;101493.44;20930714;28;20234;-67
2021/10/01 17:24:37;;;;;;;42.87;31.53;;;;;;;9.67;100.00;101493.41;20952303;28;20241;-67
2021/10/01 17:34:41;;;;;;;25.93;21.53;;;;;;;9.53;100.00;101490.47;20941143;28;20312;-68
2021/10/01 17:54:42;;;;;;;29.60;21.50;;;;;;;9.25;100.00;101477.41;20953256;27;21150;-69
2021/10/01 18:14:51;;;;;;;63.40;31.97;;;;;;;9.16;100.00;101458.25;21038506;27;20577;-69
2021/10/01 18:24:55;;;;;;;42.47;22.93;;;;;;;9.22;100.00;101452.66;21040988;27;20595;-69
2021/10/01 18:34:59;;;;;;;19.70;17.60;;;;;;;9.37;100.00;101442.25;21040988;27;20232;-68
2021/10/01 18:45:03;;;;;;;12.03;11.03;;;;;;;9.40;100.00;101435.94;21002610;27;21009;-68
2021/10/01 18:55:09;;;;;;;10.97;9.97;;;;;;;9.27;100.00;101424.06;21020949;27;21034;-67
2021/10/01 19:05:14;;;;;;;11.87;10.77;;;;;;;9.09;100.00;101419.47;20998919;27;20251;-69
2021/10/01 19:15:19;;;;;;;11.50;10.50;;;;;;;8.90;100.00;101414.91;21018965;27;20718;-71
2021/10/01 19:25:30;;;;;;;10.83;9.83;;;;;;;8.79;100.00;101395.84;20973037;27;25045;-70
2021/10/01 19:35:34;;;;;;;11.70;10.60;;;;;;;8.70;100.00;101390.84;20977518;28;20224;-71
2021/10/01 19:45:37;;;;;;;11.47;10.33;;;;;;;8.63;100.00;101389.38;20977073;28;20228;-70
2021/10/01 19:55:45;;;;;;;10.60;9.60;;;;;;;8.57;100.00;101373.66;20954649;28;20251;-71
2021/10/01 20:05:48;;;;;;;10.77;9.87;;;;;;;8.44;100.00;101351.13;20959070;28;20240;-71
2021/10/01 20:15:53;;;;;;;10.40;9.50;;;;;;;8.55;100.00;101362.22;20954457;28;20222;-70
2021/10/01 20:26:08;;;;;;;10.27;9.33;;;;;;;8.55;100.00;101348.91;20987375;28;20236;-71
2021/10/01 20:56:57;;;;;;;11.00;10.00;;;;;;;8.48;100.00;101336.75;21074799;28;20225;-72
2021/10/01 21:48:22;;;;;;;11.43;10.40;;;;;;;7.95;100.00;101281.19;20974367;28;20233;-71
2021/10/01 21:58:28;;;;;;;12.97;11.77;;;;;;;7.83;100.00;101277.19;20946503;28;20274;-70
2021/10/01 22:08:48;;;;;;;12.97;11.70;;;;;;;7.82;100.00;101261.31;20974621;28;20301;-69
2021/10/01 22:29:12;;;;;;;12.63;11.33;;;;;;;7.71;100.00;101243.13;20982141;28;20234;-74
2021/10/01 22:39:19;;;;;;;14.00;12.60;;;;;;;7.73;100.00;101241.25;20985459;28;20295;-74
2021/10/01 22:49:21;;;;;;;13.03;11.67;;;;;;;7.76;100.00;101224.34;20984590;28;20234;-74
2021/10/01 22:59:25;;;;;;;12.33;11.03;;;;;;;7.80;100.00;101216.19;20996647;28;20229;-75
2021/10/01 23:09:27;;;;;;;12.07;10.93;;;;;;;7.79;100.00;101221.56;20998796;28;20796;-73
